sensor_id;sensor_type;location;lat;lon;timestamp;P1;durP1;ratioP1;P2;durP2;ratioP2
53339;SDS011;46212;50.258;19.062;2023-06-22T00:01:02;12.63;;;6.63;;
53339;SDS011;46212;50.258;19.062;2023-06-22T00:03:27;15.43;;;6.73;;
53339;SDS011;46212;50.258;19.062;2023-06-22T00:05:53;14.47;;;7.73;;
53339;SDS011;46212;50.258;19.062;2023-06-22T00:08:19;11.02;;;7.10;;
53339;SDS011;46212;50.258;19.062;2023-06-22T00:10:45;12.55;;;7.07;;
53339;SDS011;46212;50.258;19.062;2023-06-22T00:13:11;12.45;;;6.68;;
53339;SDS011;46212;50.258;19.062;2023-06-22T00:15:38;13.65;;;7.15;;
53339;SDS011;46212;50.258;19.062;2023-06-22T00:18:06;14.95;;;7.78;;
53339;SDS011;46212;50.258;19.062;2023-06-22T00:20:32;10.05;;;6.28;;
53339;SDS011;46212;50.258;19.062;2023-06-22T00:23:01;12.90;;;6.15;;
53339;SDS011;46212;50.258;19.062;2023-06-22T00:25:27;18.30;;;7.47;;
53339;SDS011;46212;50.258;19.062;2023-06-22T00:27:52;13.33;;;6.77;;
53339;SDS011;46212;50.258;19.062;2023-06-22T00:30:18;11.93;;;6.77;;
53339;SDS011;46212;50.258;19.062;2023-06-22T00:32:44;12.50;;;7.65;;
53339;SDS011;46212;50.258;19.062;2023-06-22T00:35:11;12.32;;;6.68;;
53339;SDS011;46212;50.258;19.062;2023-06-22T00:37:38;12.07;;;7.05;;
53339;SDS011;46212;50.258;19.062;2023-06-22T00:40:07;12.23;;;6.38;;
53339;SDS011;46212;50.258;19.062;2023-06-22T00:42:34;13.65;;;7.07;;
53339;SDS011;46212;50.258;19.062;2023-06-22T00:44:59;12.30;;;7.07;;
53339;SDS011;46212;50.258;19.062;2023-06-22T00:47:24;11.83;;;7.80;;
53339;SDS011;46212;50.258;19.062;2023-06-22T00:49:50;14.47;;;6.33;;
53339;SDS011;46212;50.258;19.062;2023-06-22T00:52:21;9.57;;;5.38;;
53339;SDS011;46212;50.258;19.062;2023-06-22T00:54:51;12.48;;;6.50;;
53339;SDS011;46212;50.258;19.062;2023-06-22T00:57:17;16.17;;;6.33;;
53339;SDS011;46212;50.258;19.062;2023-06-22T00:59:44;10.95;;;5.85;;
53339;SDS011;46212;50.258;19.062;2023-06-22T01:02:10;11.80;;;5.97;;
53339;SDS011;46212;50.258;19.062;2023-06-22T01:04:36;16.05;;;6.05;;
53339;SDS011;46212;50.258;19.062;2023-06-22T01:09:57;16.95;;;6.70;;
53339;SDS011;46212;50.258;19.062;2023-06-22T01:12:32;14.35;;;5.93;;
53339;SDS011;46212;50.258;19.062;2023-06-22T01:17:55;11.57;;;6.18;;
53339;SDS011;46212;50.258;19.062;2023-06-22T01:20:22;10.05;;;6.22;;
53339;SDS011;46212;50.258;19.062;2023-06-22T01:25:46;13.93;;;6.38;;
53339;SDS011;46212;50.258;19.062;2023-06-22T01:31:08;11.15;;;6.18;;
53339;SDS011;46212;50.258;19.062;2023-06-22T01:33:37;11.85;;;5.78;;
53339;SDS011;46212;50.258;19.062;2023-06-22T01:36:06;12.10;;;7.30;;
53339;SDS011;46212;50.258;19.062;2023-06-22T01:38:32;14.50;;;6.50;;
53339;SDS011;46212;50.258;19.062;2023-06-22T01:40:58;14.52;;;6.75;;
53339;SDS011;46212;50.258;19.062;2023-06-22T01:43:26;9.63;;;6.30;;
53339;SDS011;46212;50.258;19.062;2023-06-22T01:45:53;11.32;;;6.32;;
53339;SDS011;46212;50.258;19.062;2023-06-22T01:48:19;10.77;;;7.20;;
53339;SDS011;46212;50.258;19.062;2023-06-22T01:50:46;9.73;;;5.32;;
53339;SDS011;46212;50.258;19.062;2023-06-22T01:53:12;12.65;;;6.35;;
53339;SDS011;46212;50.258;19.062;2023-06-22T01:55:37;17.40;;;6.17;;
53339;SDS011;46212;50.258;19.062;2023-06-22T01:58:03;11.97;;;6.77;;
53339;SDS011;46212;50.258;19.062;2023-06-22T02:00:28;11.77;;;5.80;;
53339;SDS011;46212;50.258;19.062;2023-06-22T02:03:01;10.25;;;6.13;;
53339;SDS011;46212;50.258;19.062;2023-06-22T02:05:43;9.55;;;5.38;;
53339;SDS011;46212;50.258;19.062;2023-06-22T02:08:22;11.93;;;5.30;;
53339;SDS011;46212;50.258;19.062;2023-06-22T02:10:50;11.40;;;5.65;;
53339;SDS011;46212;50.258;19.062;2023-06-22T02:13:17;10.85;;;5.57;;
53339;SDS011;46212;50.258;19.062;2023-06-22T02:15:44;13.43;;;5.57;;
53339;SDS011;46212;50.258;19.062;2023-06-22T02:18:11;12.35;;;5.93;;
53339;SDS011;46212;50.258;19.062;2023-06-22T02:20:37;11.30;;;6.20;;
53339;SDS011;46212;50.258;19.062;2023-06-22T02:23:04;13.18;;;5.63;;
53339;SDS011;46212;50.258;19.062;2023-06-22T02:27:56;11.60;;;6.15;;
53339;SDS011;46212;50.258;19.062;2023-06-22T02:30:22;13.00;;;6.27;;
53339;SDS011;46212;50.258;19.062;2023-06-22T02:32:47;13.60;;;6.33;;
53339;SDS011;46212;50.258;19.062;2023-06-22T02:35:13;12.77;;;6.23;;
53339;SDS011;46212;50.258;19.062;2023-06-22T02:37:39;12.97;;;5.90;;
53339;SDS011;46212;50.258;19.062;2023-06-22T02:40:06;12.55;;;5.93;;
53339;SDS011;46212;50.258;19.062;2023-06-22T02:42:33;10.88;;;5.65;;
53339;SDS011;46212;50.258;19.062;2023-06-22T02:44:59;11.82;;;5.65;;
53339;SDS011;46212;50.258;19.062;2023-06-22T02:47:25;13.40;;;6.30;;
53339;SDS011;46212;50.258;19.062;2023-06-22T02:49:50;13.77;;;6.47;;
53339;SDS011;46212;50.258;19.062;2023-06-22T02:52:16;14.23;;;6.97;;
53339;SDS011;46212;50.258;19.062;2023-06-22T02:54:42;11.67;;;6.43;;
53339;SDS011;46212;50.258;19.062;2023-06-22T02:57:07;14.60;;;6.23;;
53339;SDS011;46212;50.258;19.062;2023-06-22T02:59:41;11.35;;;5.82;;
53339;SDS011;46212;50.258;19.062;2023-06-22T03:02:07;11.35;;;7.00;;
53339;SDS011;46212;50.258;19.062;2023-06-22T03:04:36;12.75;;;7.35;;
53339;SDS011;46212;50.258;19.062;2023-06-22T03:07:01;12.30;;;6.83;;
53339;SDS011;46212;50.258;19.062;2023-06-22T03:09:27;15.17;;;7.50;;
53339;SDS011;46212;50.258;19.062;2023-06-22T03:11:56;14.93;;;7.20;;
53339;SDS011;46212;50.258;19.062;2023-06-22T03:14:21;14.07;;;7.10;;
53339;SDS011;46212;50.258;19.062;2023-06-22T03:16:47;14.60;;;7.10;;
53339;SDS011;46212;50.258;19.062;2023-06-22T03:19:12;13.00;;;8.07;;
53339;SDS011;46212;50.258;19.062;2023-06-22T03:21:38;10.68;;;6.00;;
53339;SDS011;46212;50.258;19.062;2023-06-22T03:24:05;14.23;;;7.38;;
53339;SDS011;46212;50.258;19.062;2023-06-22T03:26:33;11.80;;;6.22;;
53339;SDS011;46212;50.258;19.062;2023-06-22T03:28:59;12.32;;;6.47;;
53339;SDS011;46212;50.258;19.062;2023-06-22T03:31:25;10.23;;;5.60;;
53339;SDS011;46212;50.258;19.062;2023-06-22T03:33:50;13.57;;;7.23;;
53339;SDS011;46212;50.258;19.062;2023-06-22T03:36:16;16.77;;;6.90;;
53339;SDS011;46212;50.258;19.062;2023-06-22T03:38:46;12.07;;;5.88;;
53339;SDS011;46212;50.258;19.062;2023-06-22T03:41:12;14.80;;;6.20;;
53339;SDS011;46212;50.258;19.062;2023-06-22T03:43:38;10.90;;;6.77;;
53339;SDS011;46212;50.258;19.062;2023-06-22T03:46:03;17.23;;;7.03;;
53339;SDS011;46212;50.258;19.062;2023-06-22T03:48:29;14.43;;;6.67;;
53339;SDS011;46212;50.258;19.062;2023-06-22T03:50:54;11.63;;;6.07;;
53339;SDS011;46212;50.258;19.062;2023-06-22T03:53:20;12.33;;;6.40;;
53339;SDS011;46212;50.258;19.062;2023-06-22T03:55:49;15.37;;;6.20;;
53339;SDS011;46212;50.258;19.062;2023-06-22T03:58:15;11.65;;;7.05;;
53339;SDS011;46212;50.258;19.062;2023-06-22T04:00:44;11.80;;;6.95;;
53339;SDS011;46212;50.258;19.062;2023-06-22T04:03:13;13.70;;;6.72;;
53339;SDS011;46212;50.258;19.062;2023-06-22T04:05:39;15.07;;;6.75;;
53339;SDS011;46212;50.258;19.062;2023-06-22T04:08:05;12.38;;;6.90;;
53339;SDS011;46212;50.258;19.062;2023-06-22T04:10:31;12.87;;;7.33;;
53339;SDS011;46212;50.258;19.062;2023-06-22T04:12:56;19.30;;;6.83;;
53339;SDS011;46212;50.258;19.062;2023-06-22T04:15:21;15.23;;;8.57;;
53339;SDS011;46212;50.258;19.062;2023-06-22T04:17:47;20.30;;;10.93;;
53339;SDS011;46212;50.258;19.062;2023-06-22T04:20:12;20.70;;;10.13;;
53339;SDS011;46212;50.258;19.062;2023-06-22T04:22:38;19.57;;;11.67;;
53339;SDS011;46212;50.258;19.062;2023-06-22T04:25:03;23.77;;;11.27;;
53339;SDS011;46212;50.258;19.062;2023-06-22T04:27:30;24.08;;;10.90;;
53339;SDS011;46212;50.258;19.062;2023-06-22T04:29:56;22.67;;;10.37;;
53339;SDS011;46212;50.258;19.062;2023-06-22T04:32:21;18.00;;;10.57;;
53339;SDS011;46212;50.258;19.062;2023-06-22T04:34:46;16.80;;;9.53;;
53339;SDS011;46212;50.258;19.062;2023-06-22T04:37:12;16.53;;;9.13;;
53339;SDS011;46212;50.258;19.062;2023-06-22T04:39:41;19.15;;;9.50;;
53339;SDS011;46212;50.258;19.062;2023-06-22T04:42:07;14.63;;;8.77;;
53339;SDS011;46212;50.258;19.062;2023-06-22T04:44:32;15.83;;;9.47;;
53339;SDS011;46212;50.258;19.062;2023-06-22T04:46:59;15.10;;;10.70;;
53339;SDS011;46212;50.258;19.062;2023-06-22T04:49:27;22.45;;;10.70;;
53339;SDS011;46212;50.258;19.062;2023-06-22T04:52:04;21.15;;;10.38;;
53339;SDS011;46212;50.258;19.062;2023-06-22T04:54:31;21.30;;;13.30;;
53339;SDS011;46212;50.258;19.062;2023-06-22T04:59:23;23.25;;;13.18;;
53339;SDS011;46212;50.258;19.062;2023-06-22T05:01:53;24.10;;;13.25;;
53339;SDS011;46212;50.258;19.062;2023-06-22T05:04:20;23.35;;;13.60;;
53339;SDS011;46212;50.258;19.062;2023-06-22T05:06:47;25.42;;;14.77;;
53339;SDS011;46212;50.258;19.062;2023-06-22T05:09:12;23.83;;;15.87;;
53339;SDS011;46212;50.258;19.062;2023-06-22T05:11:38;24.80;;;15.00;;
53339;SDS011;46212;50.258;19.062;2023-06-22T05:14:03;21.53;;;15.20;;
53339;SDS011;46212;50.258;19.062;2023-06-22T05:16:29;21.50;;;13.33;;
53339;SDS011;46212;50.258;19.062;2023-06-22T05:18:54;23.90;;;15.80;;
53339;SDS011;46212;50.258;19.062;2023-06-22T05:21:21;20.90;;;13.68;;
53339;SDS011;46212;50.258;19.062;2023-06-22T05:23:48;25.52;;;16.55;;
53339;SDS011;46212;50.258;19.062;2023-06-22T05:26:13;21.93;;;14.53;;
53339;SDS011;46212;50.258;19.062;2023-06-22T05:28:39;21.30;;;13.60;;
53339;SDS011;46212;50.258;19.062;2023-06-22T05:31:04;22.53;;;14.10;;
53339;SDS011;46212;50.258;19.062;2023-06-22T05:33:30;29.70;;;14.87;;
53339;SDS011;46212;50.258;19.062;2023-06-22T05:35:55;24.27;;;14.50;;
53339;SDS011;46212;50.258;19.062;2023-06-22T05:38:21;25.57;;;12.53;;
53339;SDS011;46212;50.258;19.062;2023-06-22T05:40:46;23.77;;;14.13;;
53339;SDS011;46212;50.258;19.062;2023-06-22T05:43:11;22.20;;;14.10;;
53339;SDS011;46212;50.258;19.062;2023-06-22T05:45:37;24.33;;;14.07;;
53339;SDS011;46212;50.258;19.062;2023-06-22T05:48:02;23.47;;;14.37;;
53339;SDS011;46212;50.258;19.062;2023-06-22T05:50:28;21.02;;;14.85;;
53339;SDS011;46212;50.258;19.062;2023-06-22T05:52:53;18.73;;;12.87;;
53339;SDS011;46212;50.258;19.062;2023-06-22T05:55:19;21.40;;;15.53;;
53339;SDS011;46212;50.258;19.062;2023-06-22T05:57:44;21.10;;;14.90;;
53339;SDS011;46212;50.258;19.062;2023-06-22T06:00:10;20.23;;;13.50;;
53339;SDS011;46212;50.258;19.062;2023-06-22T06:02:36;24.77;;;16.05;;
53339;SDS011;46212;50.258;19.062;2023-06-22T06:05:02;25.85;;;16.52;;
53339;SDS011;46212;50.258;19.062;2023-06-22T06:07:28;22.77;;;14.95;;
53339;SDS011;46212;50.258;19.062;2023-06-22T06:09:54;25.02;;;15.85;;
53339;SDS011;46212;50.258;19.062;2023-06-22T06:12:19;26.87;;;16.53;;
53339;SDS011;46212;50.258;19.062;2023-06-22T06:14:45;24.10;;;16.53;;
53339;SDS011;46212;50.258;19.062;2023-06-22T06:17:10;22.40;;;16.63;;
53339;SDS011;46212;50.258;19.062;2023-06-22T06:19:35;24.60;;;16.10;;
53339;SDS011;46212;50.258;19.062;2023-06-22T06:22:01;22.50;;;15.97;;
53339;SDS011;46212;50.258;19.062;2023-06-22T06:24:26;24.33;;;14.97;;
53339;SDS011;46212;50.258;19.062;2023-06-22T06:26:52;27.87;;;15.43;;
53339;SDS011;46212;50.258;19.062;2023-06-22T06:29:17;29.90;;;19.50;;
53339;SDS011;46212;50.258;19.062;2023-06-22T06:31:42;23.97;;;16.37;;
53339;SDS011;46212;50.258;19.062;2023-06-22T06:34:08;18.60;;;14.17;;
53339;SDS011;46212;50.258;19.062;2023-06-22T06:36:33;20.67;;;14.67;;
53339;SDS011;46212;50.258;19.062;2023-06-22T06:38:59;21.60;;;15.43;;
53339;SDS011;46212;50.258;19.062;2023-06-22T06:41:24;22.77;;;16.90;;
53339;SDS011;46212;50.258;19.062;2023-06-22T06:43:49;24.80;;;16.30;;
53339;SDS011;46212;50.258;19.062;2023-06-22T06:46:15;21.43;;;14.87;;
53339;SDS011;46212;50.258;19.062;2023-06-22T06:48:40;36.17;;;23.87;;
53339;SDS011;46212;50.258;19.062;2023-06-22T06:51:06;46.97;;;30.57;;
53339;SDS011;46212;50.258;19.062;2023-06-22T06:53:34;27.88;;;18.15;;
53339;SDS011;46212;50.258;19.062;2023-06-22T06:56:00;22.88;;;15.48;;
53339;SDS011;46212;50.258;19.062;2023-06-22T06:58:26;18.60;;;14.48;;
53339;SDS011;46212;50.258;19.062;2023-06-22T07:00:51;18.90;;;13.90;;
53339;SDS011;46212;50.258;19.062;2023-06-22T07:03:16;21.60;;;15.10;;
53339;SDS011;46212;50.258;19.062;2023-06-22T07:05:42;17.43;;;11.10;;
53339;SDS011;46212;50.258;19.062;2023-06-22T07:08:07;16.60;;;10.03;;
53339;SDS011;46212;50.258;19.062;2023-06-22T07:10:32;16.08;;;10.00;;
53339;SDS011;46212;50.258;19.062;2023-06-22T07:12:58;12.80;;;9.67;;
53339;SDS011;46212;50.258;19.062;2023-06-22T07:15:23;17.17;;;10.90;;
53339;SDS011;46212;50.258;19.062;2023-06-22T07:17:49;17.13;;;10.70;;
53339;SDS011;46212;50.258;19.062;2023-06-22T07:20:14;15.50;;;10.60;;
53339;SDS011;46212;50.258;19.062;2023-06-22T07:22:40;11.23;;;8.73;;
53339;SDS011;46212;50.258;19.062;2023-06-22T07:25:12;14.25;;;9.88;;
53339;SDS011;46212;50.258;19.062;2023-06-22T07:27:40;13.90;;;9.20;;
53339;SDS011;46212;50.258;19.062;2023-06-22T07:30:10;12.13;;;8.15;;
53339;SDS011;46212;50.258;19.062;2023-06-22T07:32:36;13.35;;;9.10;;
53339;SDS011;46212;50.258;19.062;2023-06-22T07:35:02;14.57;;;10.90;;
53339;SDS011;46212;50.258;19.062;2023-06-22T07:37:28;18.05;;;10.32;;
53339;SDS011;46212;50.258;19.062;2023-06-22T07:39:54;12.50;;;8.13;;
53339;SDS011;46212;50.258;19.062;2023-06-22T07:42:23;12.57;;;7.68;;
53339;SDS011;46212;50.258;19.062;2023-06-22T07:44:49;11.57;;;7.47;;
53339;SDS011;46212;50.258;19.062;2023-06-22T07:47:16;10.90;;;6.95;;
53339;SDS011;46212;50.258;19.062;2023-06-22T07:49:43;8.88;;;6.45;;
53339;SDS011;46212;50.258;19.062;2023-06-22T07:52:08;12.55;;;7.10;;
53339;SDS011;46212;50.258;19.062;2023-06-22T07:54:34;14.90;;;7.50;;
53339;SDS011;46212;50.258;19.062;2023-06-22T07:56:59;12.30;;;6.53;;
53339;SDS011;46212;50.258;19.062;2023-06-22T07:59:25;9.80;;;7.28;;
53339;SDS011;46212;50.258;19.062;2023-06-22T08:01:50;12.43;;;7.50;;
53339;SDS011;46212;50.258;19.062;2023-06-22T08:04:16;10.07;;;6.63;;
53339;SDS011;46212;50.258;19.062;2023-06-22T08:06:41;10.40;;;7.37;;
53339;SDS011;46212;50.258;19.062;2023-06-22T08:09:07;9.50;;;6.68;;
53339;SDS011;46212;50.258;19.062;2023-06-22T08:11:32;12.02;;;6.35;;
53339;SDS011;46212;50.258;19.062;2023-06-22T08:13:57;8.50;;;5.70;;
53339;SDS011;46212;50.258;19.062;2023-06-22T08:16:23;9.13;;;6.25;;
53339;SDS011;46212;50.258;19.062;2023-06-22T08:18:49;9.68;;;6.18;;
53339;SDS011;46212;50.258;19.062;2023-06-22T08:21:14;8.45;;;5.82;;
53339;SDS011;46212;50.258;19.062;2023-06-22T08:23:39;11.55;;;6.60;;
53339;SDS011;46212;50.258;19.062;2023-06-22T08:26:05;13.10;;;9.57;;
53339;SDS011;46212;50.258;19.062;2023-06-22T08:28:30;10.00;;;6.37;;
53339;SDS011;46212;50.258;19.062;2023-06-22T08:30:56;9.07;;;6.40;;
53339;SDS011;46212;50.258;19.062;2023-06-22T08:33:21;9.43;;;6.60;;
53339;SDS011;46212;50.258;19.062;2023-06-22T08:35:53;9.88;;;6.35;;
53339;SDS011;46212;50.258;19.062;2023-06-22T08:38:20;8.50;;;6.43;;
53339;SDS011;46212;50.258;19.062;2023-06-22T08:40:45;9.68;;;6.82;;
53339;SDS011;46212;50.258;19.062;2023-06-22T08:43:11;7.70;;;5.78;;
53339;SDS011;46212;50.258;19.062;2023-06-22T08:45:36;10.57;;;5.63;;
53339;SDS011;46212;50.258;19.062;2023-06-22T08:48:02;9.37;;;6.70;;
53339;SDS011;46212;50.258;19.062;2023-06-22T08:50:27;11.95;;;5.75;;
53339;SDS011;46212;50.258;19.062;2023-06-22T08:52:53;9.85;;;5.78;;
53339;SDS011;46212;50.258;19.062;2023-06-22T08:55:18;9.57;;;6.10;;
53339;SDS011;46212;50.258;19.062;2023-06-22T08:57:44;10.35;;;6.40;;
53339;SDS011;46212;50.258;19.062;2023-06-22T09:00:09;8.70;;;5.40;;
53339;SDS011;46212;50.258;19.062;2023-06-22T09:02:42;13.95;;;7.78;;
53339;SDS011;46212;50.258;19.062;2023-06-22T09:05:09;9.68;;;6.47;;
53339;SDS011;46212;50.258;19.062;2023-06-22T09:07:34;9.15;;;6.15;;
53339;SDS011;46212;50.258;19.062;2023-06-22T09:10:00;9.18;;;5.93;;
53339;SDS011;46212;50.258;19.062;2023-06-22T09:12:25;15.50;;;6.97;;
53339;SDS011;46212;50.258;19.062;2023-06-22T09:14:52;7.40;;;5.78;;
53339;SDS011;46212;50.258;19.062;2023-06-22T09:17:18;7.72;;;5.45;;
53339;SDS011;46212;50.258;19.062;2023-06-22T09:19:44;9.20;;;6.10;;
53339;SDS011;46212;50.258;19.062;2023-06-22T09:22:09;8.80;;;6.73;;
53339;SDS011;46212;50.258;19.062;2023-06-22T09:24:35;8.40;;;6.13;;
53339;SDS011;46212;50.258;19.062;2023-06-22T09:27:00;10.60;;;7.07;;
53339;SDS011;46212;50.258;19.062;2023-06-22T09:29:25;18.42;;;11.70;;
53339;SDS011;46212;50.258;19.062;2023-06-22T09:31:51;9.20;;;6.10;;
53339;SDS011;46212;50.258;19.062;2023-06-22T09:34:18;8.82;;;6.22;;
53339;SDS011;46212;50.258;19.062;2023-06-22T09:36:45;10.35;;;6.05;;
53339;SDS011;46212;50.258;19.062;2023-06-22T09:39:13;8.05;;;5.90;;
53339;SDS011;46212;50.258;19.062;2023-06-22T09:41:39;8.98;;;6.10;;
53339;SDS011;46212;50.258;19.062;2023-06-22T09:44:04;9.02;;;6.38;;
53339;SDS011;46212;50.258;19.062;2023-06-22T09:46:30;9.23;;;6.80;;
53339;SDS011;46212;50.258;19.062;2023-06-22T09:48:55;8.52;;;6.00;;
53339;SDS011;46212;50.258;19.062;2023-06-22T09:51:21;8.23;;;5.88;;
53339;SDS011;46212;50.258;19.062;2023-06-22T09:53:47;8.70;;;5.43;;
53339;SDS011;46212;50.258;19.062;2023-06-22T09:56:12;9.55;;;5.97;;
53339;SDS011;46212;50.258;19.062;2023-06-22T09:58:40;9.82;;;6.07;;
53339;SDS011;46212;50.258;19.062;2023-06-22T10:01:07;8.98;;;5.68;;
53339;SDS011;46212;50.258;19.062;2023-06-22T10:03:32;9.70;;;6.30;;
53339;SDS011;46212;50.258;19.062;2023-06-22T10:05:58;8.07;;;6.13;;
53339;SDS011;46212;50.258;19.062;2023-06-22T10:08:23;9.20;;;6.30;;
53339;SDS011;46212;50.258;19.062;2023-06-22T10:13:14;10.07;;;6.32;;
53339;SDS011;46212;50.258;19.062;2023-06-22T10:15:40;9.88;;;6.20;;
53339;SDS011;46212;50.258;19.062;2023-06-22T10:18:05;10.27;;;5.68;;
53339;SDS011;46212;50.258;19.062;2023-06-22T10:22:56;11.38;;;6.53;;
53339;SDS011;46212;50.258;19.062;2023-06-22T10:27:47;9.05;;;6.10;;
53339;SDS011;46212;50.258;19.062;2023-06-22T10:32:38;8.50;;;5.53;;
53339;SDS011;46212;50.258;19.062;2023-06-22T10:37:29;7.85;;;5.65;;
53339;SDS011;46212;50.258;19.062;2023-06-22T10:42:20;7.18;;;5.53;;
53339;SDS011;46212;50.258;19.062;2023-06-22T10:47:11;9.98;;;5.95;;
53339;SDS011;46212;50.258;19.062;2023-06-22T10:52:08;6.60;;;5.45;;
53339;SDS011;46212;50.258;19.062;2023-06-22T10:54:34;9.30;;;5.40;;
53339;SDS011;46212;50.258;19.062;2023-06-22T10:57:01;8.40;;;5.80;;
53339;SDS011;46212;50.258;19.062;2023-06-22T10:59:27;12.68;;;5.70;;
53339;SDS011;46212;50.258;19.062;2023-06-22T11:01:53;10.18;;;6.72;;
53339;SDS011;46212;50.258;19.062;2023-06-22T11:04:20;7.80;;;6.03;;
53339;SDS011;46212;50.258;19.062;2023-06-22T11:09:10;19.42;;;14.63;;
53339;SDS011;46212;50.258;19.062;2023-06-22T11:14:01;7.75;;;6.03;;
53339;SDS011;46212;50.258;19.062;2023-06-22T11:18:52;10.98;;;8.52;;
53339;SDS011;46212;50.258;19.062;2023-06-22T11:23:43;9.60;;;6.90;;
53339;SDS011;46212;50.258;19.062;2023-06-22T11:28:33;9.07;;;6.28;;
53339;SDS011;46212;50.258;19.062;2023-06-22T11:33:24;8.60;;;6.00;;
53339;SDS011;46212;50.258;19.062;2023-06-22T11:35:49;9.50;;;5.97;;
53339;SDS011;46212;50.258;19.062;2023-06-22T11:38:15;8.80;;;6.38;;
53339;SDS011;46212;50.258;19.062;2023-06-22T11:40:40;9.32;;;6.32;;
53339;SDS011;46212;50.258;19.062;2023-06-22T11:43:06;8.02;;;5.90;;
53339;SDS011;46212;50.258;19.062;2023-06-22T11:47:56;18.13;;;14.67;;
53339;SDS011;46212;50.258;19.062;2023-06-22T11:50:22;8.88;;;7.43;;
53339;SDS011;46212;50.258;19.062;2023-06-22T11:52:47;8.35;;;6.90;;
53339;SDS011;46212;50.258;19.062;2023-06-22T11:55:13;9.50;;;6.72;;
53339;SDS011;46212;50.258;19.062;2023-06-22T11:57:38;11.15;;;6.82;;
53339;SDS011;46212;50.258;19.062;2023-06-22T12:00:18;8.02;;;5.90;;
53339;SDS011;46212;50.258;19.062;2023-06-22T12:02:44;8.32;;;5.85;;
53339;SDS011;46212;50.258;19.062;2023-06-22T12:05:12;28.58;;;20.52;;
53339;SDS011;46212;50.258;19.062;2023-06-22T12:07:38;13.40;;;10.68;;
53339;SDS011;46212;50.258;19.062;2023-06-22T12:10:03;10.82;;;6.13;;
53339;SDS011;46212;50.258;19.062;2023-06-22T12:12:29;11.63;;;6.38;;
53339;SDS011;46212;50.258;19.062;2023-06-22T12:14:54;14.00;;;9.93;;
53339;SDS011;46212;50.258;19.062;2023-06-22T12:17:20;8.07;;;6.32;;
53339;SDS011;46212;50.258;19.062;2023-06-22T12:19:45;7.88;;;6.05;;
53339;SDS011;46212;50.258;19.062;2023-06-22T12:22:11;10.52;;;7.47;;
53339;SDS011;46212;50.258;19.062;2023-06-22T12:24:36;9.98;;;6.60;;
53339;SDS011;46212;50.258;19.062;2023-06-22T12:27:01;10.95;;;6.40;;
53339;SDS011;46212;50.258;19.062;2023-06-22T12:29:28;10.35;;;6.00;;
53339;SDS011;46212;50.258;19.062;2023-06-22T12:31:54;11.50;;;6.95;;
53339;SDS011;46212;50.258;19.062;2023-06-22T12:34:19;10.02;;;6.72;;
53339;SDS011;46212;50.258;19.062;2023-06-22T12:36:45;8.93;;;6.78;;
53339;SDS011;46212;50.258;19.062;2023-06-22T12:39:12;10.15;;;6.68;;
53339;SDS011;46212;50.258;19.062;2023-06-22T12:41:37;8.93;;;6.90;;
53339;SDS011;46212;50.258;19.062;2023-06-22T12:44:03;13.45;;;9.27;;
53339;SDS011;46212;50.258;19.062;2023-06-22T12:46:28;13.18;;;7.13;;
53339;SDS011;46212;50.258;19.062;2023-06-22T12:48:55;10.25;;;6.93;;
53339;SDS011;46212;50.258;19.062;2023-06-22T12:51:21;8.73;;;7.13;;
53339;SDS011;46212;50.258;19.062;2023-06-22T12:53:47;9.10;;;6.75;;
53339;SDS011;46212;50.258;19.062;2023-06-22T12:56:13;8.98;;;6.68;;
53339;SDS011;46212;50.258;19.062;2023-06-22T12:58:38;8.75;;;7.25;;
53339;SDS011;46212;50.258;19.062;2023-06-22T13:01:03;12.10;;;7.25;;
53339;SDS011;46212;50.258;19.062;2023-06-22T13:03:29;9.00;;;6.70;;
53339;SDS011;46212;50.258;19.062;2023-06-22T13:05:54;9.77;;;6.95;;
53339;SDS011;46212;50.258;19.062;2023-06-22T13:08:20;9.77;;;7.22;;
53339;SDS011;46212;50.258;19.062;2023-06-22T13:10:45;10.63;;;7.00;;
53339;SDS011;46212;50.258;19.062;2023-06-22T13:13:11;8.63;;;6.60;;
53339;SDS011;46212;50.258;19.062;2023-06-22T13:15:36;8.52;;;6.65;;
53339;SDS011;46212;50.258;19.062;2023-06-22T13:18:01;9.50;;;7.28;;
53339;SDS011;46212;50.258;19.062;2023-06-22T13:20:28;10.15;;;6.93;;
53339;SDS011;46212;50.258;19.062;2023-06-22T13:22:54;10.18;;;7.50;;
53339;SDS011;46212;50.258;19.062;2023-06-22T13:25:20;10.90;;;7.28;;
53339;SDS011;46212;50.258;19.062;2023-06-22T13:27:48;10.35;;;6.53;;
53339;SDS011;46212;50.258;19.062;2023-06-22T13:30:15;8.95;;;6.68;;
53339;SDS011;46212;50.258;19.062;2023-06-22T13:32:40;9.23;;;6.80;;
53339;SDS011;46212;50.258;19.062;2023-06-22T13:35:07;9.98;;;6.90;;
53339;SDS011;46212;50.258;19.062;2023-06-22T13:37:34;9.02;;;6.53;;
53339;SDS011;46212;50.258;19.062;2023-06-22T13:39:59;10.02;;;7.38;;
53339;SDS011;46212;50.258;19.062;2023-06-22T13:42:24;10.18;;;6.90;;
53339;SDS011;46212;50.258;19.062;2023-06-22T13:44:50;9.70;;;6.63;;
53339;SDS011;46212;50.258;19.062;2023-06-22T13:47:15;9.10;;;6.93;;
53339;SDS011;46212;50.258;19.062;2023-06-22T13:49:41;8.13;;;6.80;;
53339;SDS011;46212;50.258;19.062;2023-06-22T13:52:06;10.05;;;6.70;;
53339;SDS011;46212;50.258;19.062;2023-06-22T13:54:37;8.75;;;6.75;;
53339;SDS011;46212;50.258;19.062;2023-06-22T13:57:03;7.63;;;6.07;;
53339;SDS011;46212;50.258;19.062;2023-06-22T13:59:28;7.78;;;6.40;;
53339;SDS011;46212;50.258;19.062;2023-06-22T14:01:54;7.60;;;6.63;;
53339;SDS011;46212;50.258;19.062;2023-06-22T14:04:19;7.85;;;7.05;;
53339;SDS011;46212;50.258;19.062;2023-06-22T14:06:45;12.07;;;7.40;;
53339;SDS011;46212;50.258;19.062;2023-06-22T14:09:10;8.85;;;7.35;;
53339;SDS011;46212;50.258;19.062;2023-06-22T14:11:35;9.82;;;7.82;;
53339;SDS011;46212;50.258;19.062;2023-06-22T14:14:01;10.95;;;7.13;;
53339;SDS011;46212;50.258;19.062;2023-06-22T14:16:26;9.10;;;7.47;;
53339;SDS011;46212;50.258;19.062;2023-06-22T14:18:52;10.85;;;6.97;;
53339;SDS011;46212;50.258;19.062;2023-06-22T14:21:17;8.20;;;6.85;;
53339;SDS011;46212;50.258;19.062;2023-06-22T14:23:43;9.07;;;7.55;;
53339;SDS011;46212;50.258;19.062;2023-06-22T14:26:14;9.60;;;7.18;;
53339;SDS011;46212;50.258;19.062;2023-06-22T14:28:39;8.50;;;6.72;;
53339;SDS011;46212;50.258;19.062;2023-06-22T14:31:05;8.23;;;6.80;;
53339;SDS011;46212;50.258;19.062;2023-06-22T14:33:30;9.52;;;7.68;;
53339;SDS011;46212;50.258;19.062;2023-06-22T14:35:56;12.80;;;7.75;;
53339;SDS011;46212;50.258;19.062;2023-06-22T14:38:21;11.80;;;6.88;;
53339;SDS011;46212;50.258;19.062;2023-06-22T14:40:46;8.63;;;7.20;;
53339;SDS011;46212;50.258;19.062;2023-06-22T14:43:12;10.25;;;7.85;;
53339;SDS011;46212;50.258;19.062;2023-06-22T14:45:37;7.40;;;6.57;;
53339;SDS011;46212;50.258;19.062;2023-06-22T14:48:02;9.95;;;6.70;;
53339;SDS011;46212;50.258;19.062;2023-06-22T14:50:28;11.05;;;7.10;;
53339;SDS011;46212;50.258;19.062;2023-06-22T14:52:53;7.60;;;6.70;;
53339;SDS011;46212;50.258;19.062;2023-06-22T14:55:19;8.10;;;6.70;;
53339;SDS011;46212;50.258;19.062;2023-06-22T14:57:45;8.45;;;6.72;;
53339;SDS011;46212;50.258;19.062;2023-06-22T15:00:10;9.15;;;7.07;;
53339;SDS011;46212;50.258;19.062;2023-06-22T15:02:36;9.43;;;7.55;;
53339;SDS011;46212;50.258;19.062;2023-06-22T15:05:02;8.63;;;7.00;;
53339;SDS011;46212;50.258;19.062;2023-06-22T15:07:27;8.15;;;6.60;;
53339;SDS011;46212;50.258;19.062;2023-06-22T15:09:52;8.85;;;6.95;;